Southard, Oklahoma
Current Conditions -  °F | °C
As of 6:15 PM on Wednesday 26 Nov 2014 (Local Time) from KJWG Reporting Station
Clear Clear  
Wind Chill: 38°   Ceiling: Unl
Heat Index: 44°   Visibility: 10mi
Dew Point: 25°   Wind: 12mph
Humidity: 47%   Direction: 360°N
Pressure: 30.32"   Gusts: NA
Location:  36.06°N, 98.48°W
Report Text: KJWG 270015Z AUTO 36010KT 10SM CLR 07/M04 A3032 RMK AO2 T00651041
Loading
Personal Weather Stations






























Interactive Weather Map New forecast layout! Learn more

10-Day Weather Forecast

Advertisements
Track Severe Weather on mobile